sensor_id;sensor_type;location;lat;lon;timestamp;pressure;altitude;pressure_sealevel;temperature;humidity
64889;BME280;51386;53.082;8.816;2023-02-08T00:00:15;103987.25;;;5.89;48.99
64889;BME280;51386;53.082;8.816;2023-02-08T00:02:42;103983.84;;;5.87;48.45
64889;BME280;51386;53.082;8.816;2023-02-08T00:05:09;103983.84;;;5.87;49.58
64889;BME280;51386;53.082;8.816;2023-02-08T00:07:36;103977.75;;;5.86;50.13
64889;BME280;51386;53.082;8.816;2023-02-08T00:10:04;103975.06;;;5.88;49.68
64889;BME280;51386;53.082;8.816;2023-02-08T00:12:32;103968.00;;;5.90;49.89
64889;BME280;51386;53.082;8.816;2023-02-08T00:15:01;103967.91;;;5.93;48.64
64889;BME280;51386;53.082;8.816;2023-02-08T00:17:28;103969.53;;;5.95;49.11
64889;BME280;51386;53.082;8.816;2023-02-08T00:19:55;103977.38;;;5.95;49.05
64889;BME280;51386;53.082;8.816;2023-02-08T00:22:22;103973.91;;;5.95;49.53
64889;BME280;51386;53.082;8.816;2023-02-08T00:24:49;103976.53;;;5.95;48.93
64889;BME280;51386;53.082;8.816;2023-02-08T00:27:17;103979.13;;;5.95;49.09
64889;BME280;51386;53.082;8.816;2023-02-08T00:29:44;103973.00;;;5.96;49.03
64889;BME280;51386;53.082;8.816;2023-02-08T00:32:12;103973.00;;;5.96;49.55
64889;BME280;51386;53.082;8.816;2023-02-08T00:34:39;103969.59;;;5.94;49.09
64889;BME280;51386;53.082;8.816;2023-02-08T00:37:06;103967.03;;;5.92;49.15
64889;BME280;51386;53.082;8.816;2023-02-08T00:39:33;103964.50;;;5.91;48.29
64889;BME280;51386;53.082;8.816;2023-02-08T00:42:00;103958.50;;;5.89;48.37
64889;BME280;51386;53.082;8.816;2023-02-08T00:44:27;103957.72;;;5.87;48.87
64889;BME280;51386;53.082;8.816;2023-02-08T00:46:53;103952.50;;;5.87;48.50
64889;BME280;51386;53.082;8.816;2023-02-08T00:49:22;103950.78;;;5.86;48.03
64889;BME280;51386;53.082;8.816;2023-02-08T00:51:49;103949.06;;;5.85;48.24
64889;BME280;51386;53.082;8.816;2023-02-08T00:54:18;103957.81;;;5.84;48.12
64889;BME280;51386;53.082;8.816;2023-02-08T00:56:46;103951.69;;;5.85;49.04
64889;BME280;51386;53.082;8.816;2023-02-08T00:59:13;103947.34;;;5.84;48.79
64889;BME280;51386;53.082;8.816;2023-02-08T01:01:40;103945.63;;;5.83;48.19
64889;BME280;51386;53.082;8.816;2023-02-08T01:04:08;103949.19;;;5.82;48.71
64889;BME280;51386;53.082;8.816;2023-02-08T01:06:36;103947.47;;;5.81;48.90
64889;BME280;51386;53.082;8.816;2023-02-08T01:09:03;103953.63;;;5.80;48.60
64889;BME280;51386;53.082;8.816;2023-02-08T01:11:30;103940.56;;;5.80;47.82
64889;BME280;51386;53.082;8.816;2023-02-08T01:13:57;103946.69;;;5.79;48.60
64889;BME280;51386;53.082;8.816;2023-02-08T01:16:27;103933.63;;;5.79;47.96
64889;BME280;51386;53.082;8.816;2023-02-08T01:18:57;103933.75;;;5.76;47.85
64889;BME280;51386;53.082;8.816;2023-02-08T01:21:28;103935.84;;;5.68;48.01
64889;BME280;51386;53.082;8.816;2023-02-08T01:23:57;103935.09;;;5.64;47.77
64889;BME280;51386;53.082;8.816;2023-02-08T01:26:26;103935.41;;;5.57;47.78
64889;BME280;51386;53.082;8.816;2023-02-08T01:28:54;103931.25;;;5.53;49.01
64889;BME280;51386;53.082;8.816;2023-02-08T01:31:24;103925.31;;;5.49;48.17
64889;BME280;51386;53.082;8.816;2023-02-08T01:33:51;103933.19;;;5.47;48.48
64889;BME280;51386;53.082;8.816;2023-02-08T01:36:18;103944.56;;;5.46;49.20
64889;BME280;51386;53.082;8.816;2023-02-08T01:38:46;103944.50;;;5.48;49.20
64889;BME280;51386;53.082;8.816;2023-02-08T01:41:17;103934.13;;;5.46;49.26
64889;BME280;51386;53.082;8.816;2023-02-08T01:44:08;103936.72;;;5.46;49.19
64889;BME280;51386;53.082;8.816;2023-02-08T01:46:54;103938.41;;;5.47;48.98
64889;BME280;51386;53.082;8.816;2023-02-08T01:49:26;103934.75;;;5.52;49.47
64889;BME280;51386;53.082;8.816;2023-02-08T01:51:59;103939.06;;;5.53;48.60
64889;BME280;51386;53.082;8.816;2023-02-08T01:54:32;103932.97;;;5.54;49.10
64889;BME280;51386;53.082;8.816;2023-02-08T01:57:02;103929.59;;;5.50;48.72
64889;BME280;51386;53.082;8.816;2023-02-08T01:59:37;103934.16;;;5.45;48.61
64889;BME280;51386;53.082;8.816;2023-02-08T02:02:09;103935.13;;;5.42;48.79
64889;BME280;51386;53.082;8.816;2023-02-08T02:04:37;103935.13;;;5.42;49.17
64889;BME280;51386;53.082;8.816;2023-02-08T02:07:05;103935.13;;;5.42;48.52
64889;BME280;51386;53.082;8.816;2023-02-08T02:09:40;103933.44;;;5.41;49.28
64889;BME280;51386;53.082;8.816;2023-02-08T02:12:12;103936.06;;;5.41;49.26
64889;BME280;51386;53.082;8.816;2023-02-08T02:14:41;103934.22;;;5.43;49.01
64889;BME280;51386;53.082;8.816;2023-02-08T02:17:10;103940.25;;;5.45;48.94
64889;BME280;51386;53.082;8.816;2023-02-08T02:19:54;103945.34;;;5.48;49.25
64889;BME280;51386;53.082;8.816;2023-02-08T02:26:29;103927.97;;;5.47;48.68
64889;BME280;51386;53.082;8.816;2023-02-08T02:29:35;103934.03;;;5.48;48.95
64889;BME280;51386;53.082;8.816;2023-02-08T02:35:07;103921.19;;;5.43;47.95
64889;BME280;51386;53.082;8.816;2023-02-08T02:37:49;103915.28;;;5.38;48.94
64889;BME280;51386;53.082;8.816;2023-02-08T02:40:30;103917.50;;;5.27;48.58
64889;BME280;51386;53.082;8.816;2023-02-08T02:43:11;103916.94;;;5.19;48.50
64889;BME280;51386;53.082;8.816;2023-02-08T02:46:04;103910.25;;;5.12;49.31
64889;BME280;51386;53.082;8.816;2023-02-08T02:48:41;103913.06;;;5.08;49.12
64889;BME280;51386;53.082;8.816;2023-02-08T02:51:16;103915.56;;;5.11;50.11
64889;BME280;51386;53.082;8.816;2023-02-08T02:53:52;103925.13;;;5.10;49.84
64889;BME280;51386;53.082;8.816;2023-02-08T02:56:25;103917.19;;;5.13;49.50
64889;BME280;51386;53.082;8.816;2023-02-08T02:58:58;103925.81;;;5.15;49.62
64889;BME280;51386;53.082;8.816;2023-02-08T03:01:28;103924.09;;;5.14;49.02
64889;BME280;51386;53.082;8.816;2023-02-08T03:03:57;103930.19;;;5.15;50.04
64889;BME280;51386;53.082;8.816;2023-02-08T03:06:35;103924.09;;;5.14;49.78
64889;BME280;51386;53.082;8.816;2023-02-08T03:09:34;103931.16;;;5.12;49.94
64889;BME280;51386;53.082;8.816;2023-02-08T03:12:23;103938.13;;;5.12;49.36
64889;BME280;51386;53.082;8.816;2023-02-08T03:15:02;103936.28;;;5.14;49.36
64889;BME280;51386;53.082;8.816;2023-02-08T03:17:53;103935.47;;;5.13;49.33
64889;BME280;51386;53.082;8.816;2023-02-08T03:20:31;103935.41;;;5.15;49.75
64889;BME280;51386;53.082;8.816;2023-02-08T03:23:07;103938.19;;;5.10;48.89
64889;BME280;51386;53.082;8.816;2023-02-08T03:25:43;103947.84;;;5.08;48.88
64889;BME280;51386;53.082;8.816;2023-02-08T03:28:22;103940.13;;;5.05;49.94
64889;BME280;51386;53.082;8.816;2023-02-08T03:31:02;103936.91;;;4.99;49.89
64889;BME280;51386;53.082;8.816;2023-02-08T03:33:36;103946.28;;;4.81;49.60
64889;BME280;51386;53.082;8.816;2023-02-08T03:36:16;103953.56;;;4.73;50.38
64889;BME280;51386;53.082;8.816;2023-02-08T03:38:49;103948.38;;;4.71;49.56
64889;BME280;51386;53.082;8.816;2023-02-08T03:41:24;103955.34;;;4.71;49.80
64889;BME280;51386;53.082;8.816;2023-02-08T03:43:58;103953.16;;;4.60;49.75
64889;BME280;51386;53.082;8.816;2023-02-08T03:46:31;103959.53;;;4.52;50.46
64889;BME280;51386;53.082;8.816;2023-02-08T03:49:03;103964.22;;;4.42;50.36
64889;BME280;51386;53.082;8.816;2023-02-08T03:51:36;103956.81;;;4.32;51.59
64889;BME280;51386;53.082;8.816;2023-02-08T03:54:11;103963.84;;;4.30;51.72
64889;BME280;51386;53.082;8.816;2023-02-08T03:56:46;103961.09;;;4.33;51.00
64889;BME280;51386;53.082;8.816;2023-02-08T03:59:20;103960.13;;;4.37;51.14
64889;BME280;51386;53.082;8.816;2023-02-08T04:01:55;103968.72;;;4.39;50.86
64889;BME280;51386;53.082;8.816;2023-02-08T04:04:28;103963.59;;;4.36;51.86
64889;BME280;51386;53.082;8.816;2023-02-08T04:06:57;103969.63;;;4.38;51.48
64889;BME280;51386;53.082;8.816;2023-02-08T04:09:24;103962.75;;;4.35;50.85
64889;BME280;51386;53.082;8.816;2023-02-08T04:11:51;103965.44;;;4.34;51.46
64889;BME280;51386;53.082;8.816;2023-02-08T04:14:18;103962.91;;;4.31;51.52
64889;BME280;51386;53.082;8.816;2023-02-08T04:16:45;103963.59;;;4.36;51.90
64889;BME280;51386;53.082;8.816;2023-02-08T04:19:12;103959.19;;;4.38;51.34
64889;BME280;51386;53.082;8.816;2023-02-08T04:21:39;103959.97;;;4.40;51.24
64889;BME280;51386;53.082;8.816;2023-02-08T04:24:08;103955.00;;;4.34;51.28
64889;BME280;51386;53.082;8.816;2023-02-08T04:26:35;103964.16;;;4.21;51.72
64889;BME280;51386;53.082;8.816;2023-02-08T04:29:02;103967.75;;;4.17;52.35
64889;BME280;51386;53.082;8.816;2023-02-08T04:31:29;103965.94;;;4.19;52.59
64889;BME280;51386;53.082;8.816;2023-02-08T04:33:56;103961.41;;;4.25;52.30
64889;BME280;51386;53.082;8.816;2023-02-08T04:36:23;103964.28;;;4.18;52.19
64889;BME280;51386;53.082;8.816;2023-02-08T04:38:51;103959.94;;;4.17;52.11
64889;BME280;51386;53.082;8.816;2023-02-08T04:41:20;103966.19;;;4.13;52.04
64889;BME280;51386;53.082;8.816;2023-02-08T04:43:47;103960.06;;;4.14;52.52
64889;BME280;51386;53.082;8.816;2023-02-08T04:46:14;103966.97;;;4.15;52.06
64889;BME280;51386;53.082;8.816;2023-02-08T04:48:41;103959.06;;;4.18;52.60
64889;BME280;51386;53.082;8.816;2023-02-08T04:51:08;103950.22;;;4.22;53.04
64889;BME280;51386;53.082;8.816;2023-02-08T04:53:34;103950.00;;;4.28;53.31
64889;BME280;51386;53.082;8.816;2023-02-08T04:56:01;103949.69;;;4.37;52.34
64889;BME280;51386;53.082;8.816;2023-02-08T04:58:30;103950.38;;;4.42;51.95
64889;BME280;51386;53.082;8.816;2023-02-08T05:00:57;103950.31;;;4.43;52.28
64889;BME280;51386;53.082;8.816;2023-02-08T05:03:24;103942.56;;;4.42;52.11
64889;BME280;51386;53.082;8.816;2023-02-08T05:05:56;103943.53;;;4.38;52.31
64889;BME280;51386;53.082;8.816;2023-02-08T05:08:23;103932.56;;;4.30;52.52
64889;BME280;51386;53.082;8.816;2023-02-08T05:10:50;103931.88;;;4.25;52.73
64889;BME280;51386;53.082;8.816;2023-02-08T05:13:17;103925.72;;;4.26;52.60
64889;BME280;51386;53.082;8.816;2023-02-08T05:15:45;103931.81;;;4.26;52.79
64889;BME280;51386;53.082;8.816;2023-02-08T05:18:12;103937.97;;;4.24;52.28
64889;BME280;51386;53.082;8.816;2023-02-08T05:20:39;103932.13;;;4.17;52.74
64889;BME280;51386;53.082;8.816;2023-02-08T05:23:06;103932.19;;;4.16;52.51
64889;BME280;51386;53.082;8.816;2023-02-08T05:25:33;103938.09;;;4.21;53.54
64889;BME280;51386;53.082;8.816;2023-02-08T05:28:01;103938.84;;;4.24;53.05
64889;BME280;51386;53.082;8.816;2023-02-08T05:30:28;103933.53;;;4.27;52.49
64889;BME280;51386;53.082;8.816;2023-02-08T05:32:56;103935.28;;;4.27;52.70
64889;BME280;51386;53.082;8.816;2023-02-08T05:35:24;103934.38;;;4.28;52.70
64889;BME280;51386;53.082;8.816;2023-02-08T05:37:51;103932.66;;;4.27;52.87
64889;BME280;51386;53.082;8.816;2023-02-08T05:40:18;103930.94;;;4.26;52.13
64889;BME280;51386;53.082;8.816;2023-02-08T05:42:45;103932.75;;;4.24;52.27
64889;BME280;51386;53.082;8.816;2023-02-08T05:45:14;103925.97;;;4.20;53.07
64889;BME280;51386;53.082;8.816;2023-02-08T05:47:41;103918.09;;;4.21;53.26
64889;BME280;51386;53.082;8.816;2023-02-08T05:50:09;103921.34;;;4.28;52.61
64889;BME280;51386;53.082;8.816;2023-02-08T05:52:36;103918.50;;;4.34;52.72
64889;BME280;51386;53.082;8.816;2023-02-08T05:55:04;103914.88;;;4.38;52.83
64889;BME280;51386;53.082;8.816;2023-02-08T05:57:31;103913.19;;;4.37;52.84
64889;BME280;51386;53.082;8.816;2023-02-08T06:00:02;103913.34;;;4.32;52.44
64889;BME280;51386;53.082;8.816;2023-02-08T06:02:30;103904.06;;;4.25;52.48
64889;BME280;51386;53.082;8.816;2023-02-08T06:04:57;103902.78;;;4.12;52.97
64889;BME280;51386;53.082;8.816;2023-02-08T06:07:26;103900.56;;;4.01;53.29
64889;BME280;51386;53.082;8.816;2023-02-08T06:09:55;103905.13;;;3.95;53.40
64889;BME280;51386;53.082;8.816;2023-02-08T06:12:22;103910.50;;;3.90;53.38
64889;BME280;51386;53.082;8.816;2023-02-08T06:14:49;103907.16;;;3.87;52.89
64889;BME280;51386;53.082;8.816;2023-02-08T06:17:16;103912.38;;;3.87;54.23
64889;BME280;51386;53.082;8.816;2023-02-08T06:19:42;103908.81;;;3.89;53.93
64889;BME280;51386;53.082;8.816;2023-02-08T06:22:09;103909.59;;;3.91;54.21
64889;BME280;51386;53.082;8.816;2023-02-08T06:24:38;103916.50;;;3.92;53.80
64889;BME280;51386;53.082;8.816;2023-02-08T06:27:05;103913.00;;;3.93;53.92
64889;BME280;51386;53.082;8.816;2023-02-08T06:29:31;103919.00;;;3.95;53.73
64889;BME280;51386;53.082;8.816;2023-02-08T06:31:58;103912.78;;;3.99;54.07
64889;BME280;51386;53.082;8.816;2023-02-08T06:34:25;103905.72;;;4.03;53.44
64889;BME280;51386;53.082;8.816;2023-02-08T06:36:52;103912.56;;;4.05;53.02
64889;BME280;51386;53.082;8.816;2023-02-08T06:39:20;103911.00;;;4.01;53.69
64889;BME280;51386;53.082;8.816;2023-02-08T06:41:48;103925.13;;;3.94;53.42
64889;BME280;51386;53.082;8.816;2023-02-08T06:44:15;103922.63;;;3.91;53.78
64889;BME280;51386;53.082;8.816;2023-02-08T06:46:42;103919.41;;;3.83;53.89
64889;BME280;51386;53.082;8.816;2023-02-08T06:49:10;103924.59;;;3.85;54.43
64889;BME280;51386;53.082;8.816;2023-02-08T06:51:37;103928.09;;;3.84;53.97
64889;BME280;51386;53.082;8.816;2023-02-08T06:54:05;103931.56;;;3.84;53.53
64889;BME280;51386;53.082;8.816;2023-02-08T06:56:32;103940.31;;;3.82;53.69
64889;BME280;51386;53.082;8.816;2023-02-08T06:59:00;103940.47;;;3.77;53.54
64889;BME280;51386;53.082;8.816;2023-02-08T07:01:27;103950.13;;;3.74;54.23
64889;BME280;51386;53.082;8.816;2023-02-08T07:03:54;103939.97;;;3.66;53.94
64889;BME280;51386;53.082;8.816;2023-02-08T07:06:21;103937.34;;;3.68;55.09
64889;BME280;51386;53.082;8.816;2023-02-08T07:08:48;103934.66;;;3.69;54.32
64889;BME280;51386;53.082;8.816;2023-02-08T07:11:18;103934.97;;;3.60;54.55
64889;BME280;51386;53.082;8.816;2023-02-08T07:13:46;103932.72;;;3.50;54.95
64889;BME280;51386;53.082;8.816;2023-02-08T07:16:16;103937.09;;;3.49;55.03
64889;BME280;51386;53.082;8.816;2023-02-08T07:18:44;103930.16;;;3.48;55.43
64889;BME280;51386;53.082;8.816;2023-02-08T07:21:11;103933.97;;;3.38;55.09
64889;BME280;51386;53.082;8.816;2023-02-08T07:23:39;103927.25;;;3.31;55.14
64889;BME280;51386;53.082;8.816;2023-02-08T07:26:09;103931.47;;;3.35;55.29
64889;BME280;51386;53.082;8.816;2023-02-08T07:28:36;103933.06;;;3.39;55.00
64889;BME280;51386;53.082;8.816;2023-02-08T07:31:04;103934.72;;;3.41;55.08
64889;BME280;51386;53.082;8.816;2023-02-08T07:33:33;103942.28;;;3.49;55.13
64889;BME280;51386;53.082;8.816;2023-02-08T07:36:00;103935.19;;;3.54;54.42
64889;BME280;51386;53.082;8.816;2023-02-08T07:38:28;103934.03;;;3.63;55.16
64889;BME280;51386;53.082;8.816;2023-02-08T07:41:00;103928.56;;;3.70;54.39
64889;BME280;51386;53.082;8.816;2023-02-08T07:43:27;103927.56;;;3.74;54.48
64889;BME280;51386;53.082;8.816;2023-02-08T07:45:54;103929.38;;;3.72;54.33
64889;BME280;51386;53.082;8.816;2023-02-08T07:48:21;103922.41;;;3.73;54.09
64889;BME280;51386;53.082;8.816;2023-02-08T07:50:50;103924.94;;;3.74;54.54
64889;BME280;51386;53.082;8.816;2023-02-08T07:53:16;103922.28;;;3.76;54.36
64889;BME280;51386;53.082;8.816;2023-02-08T07:55:45;103923.28;;;3.72;54.34
64889;BME280;51386;53.082;8.816;2023-02-08T07:58:12;103921.56;;;3.72;54.50
64889;BME280;51386;53.082;8.816;2023-02-08T08:00:40;103924.25;;;3.69;54.30
64889;BME280;51386;53.082;8.816;2023-02-08T08:03:07;103918.25;;;3.67;54.73
64889;BME280;51386;53.082;8.816;2023-02-08T08:05:38;103925.91;;;3.72;54.76
64889;BME280;51386;53.082;8.816;2023-02-08T08:08:07;103921.84;;;3.89;54.03
64889;BME280;51386;53.082;8.816;2023-02-08T08:10:35;103915.88;;;4.10;53.84
64889;BME280;51386;53.082;8.816;2023-02-08T08:13:02;103917.03;;;4.27;53.45
64889;BME280;51386;53.082;8.816;2023-02-08T08:15:29;103920.06;;;4.38;52.84
64889;BME280;51386;53.082;8.816;2023-02-08T08:17:56;103915.50;;;4.44;52.54
64889;BME280;51386;53.082;8.816;2023-02-08T08:20:24;103912.94;;;4.43;52.03
64889;BME280;51386;53.082;8.816;2023-02-08T08:22:51;103915.22;;;4.52;52.58
64889;BME280;51386;53.082;8.816;2023-02-08T08:25:19;103911.31;;;4.63;51.25
64889;BME280;51386;53.082;8.816;2023-02-08T08:27:46;103918.38;;;4.83;52.10
64889;BME280;51386;53.082;8.816;2023-02-08T08:30:16;103912.19;;;5.07;51.48
64889;BME280;51386;53.082;8.816;2023-02-08T08:32:43;103912.69;;;5.38;50.61
64889;BME280;51386;53.082;8.816;2023-02-08T08:35:10;103910.69;;;5.65;50.40
64889;BME280;51386;53.082;8.816;2023-02-08T08:37:37;103904.38;;;5.91;49.72
64889;BME280;51386;53.082;8.816;2023-02-08T08:40:07;103902.09;;;6.03;48.28
64889;BME280;51386;53.082;8.816;2023-02-08T08:42:36;103898.75;;;6.00;48.80
64889;BME280;51386;53.082;8.816;2023-02-08T08:45:06;103893.94;;;5.91;48.45
64889;BME280;51386;53.082;8.816;2023-02-08T08:47:34;103898.69;;;6.01;48.66
64889;BME280;51386;53.082;8.816;2023-02-08T08:50:01;103904.88;;;6.19;49.54
64889;BME280;51386;53.082;8.816;2023-02-08T08:52:28;103907.38;;;6.41;48.68
64889;BME280;51386;53.082;8.816;2023-02-08T08:54:57;103897.50;;;6.47;47.75
64889;BME280;51386;53.082;8.816;2023-02-08T08:57:24;103894.53;;;6.55;47.23
64889;BME280;51386;53.082;8.816;2023-02-08T08:59:53;103894.25;;;6.79;47.77
64889;BME280;51386;53.082;8.816;2023-02-08T09:02:20;103895.63;;;7.05;46.89
64889;BME280;51386;53.082;8.816;2023-02-08T09:04:47;103892.34;;;7.19;46.65
64889;BME280;51386;53.082;8.816;2023-02-08T09:07:14;103902.84;;;7.53;46.81
64889;BME280;51386;53.082;8.816;2023-02-08T09:09:41;103898.31;;;8.06;46.13
64889;BME280;51386;53.082;8.816;2023-02-08T09:12:08;103899.41;;;8.68;45.10
64889;BME280;51386;53.082;8.816;2023-02-08T09:14:35;103902.97;;;9.43;43.42
64889;BME280;51386;53.082;8.816;2023-02-08T09:17:04;103891.28;;;10.21;42.06
64889;BME280;51386;53.082;8.816;2023-02-08T09:19:31;103892.44;;;10.86;41.05
64889;BME280;51386;53.082;8.816;2023-02-08T09:21:57;103893.34;;;11.51;39.06
64889;BME280;51386;53.082;8.816;2023-02-08T09:24:26;103884.03;;;12.10;37.94
64889;BME280;51386;53.082;8.816;2023-02-08T09:26:53;103887.34;;;12.86;37.65
64889;BME280;51386;53.082;8.816;2023-02-08T09:29:20;103882.13;;;13.55;36.10
64889;BME280;51386;53.082;8.816;2023-02-08T09:31:47;103879.34;;;14.14;35.53
64889;BME280;51386;53.082;8.816;2023-02-08T09:34:16;103881.22;;;14.78;33.69
64889;BME280;51386;53.082;8.816;2023-02-08T09:36:43;103888.47;;;15.40;33.43
64889;BME280;51386;53.082;8.816;2023-02-08T09:39:14;103890.34;;;15.90;32.04
64889;BME280;51386;53.082;8.816;2023-02-08T09:44:55;103895.03;;;16.77;30.07
64889;BME280;51386;53.082;8.816;2023-02-08T09:47:32;103901.50;;;16.84;29.58
64889;BME280;51386;53.082;8.816;2023-02-08T09:50:11;103899.75;;;16.55;27.83
64889;BME280;51386;53.082;8.816;2023-02-08T09:52:46;103911.00;;;16.07;28.24
64889;BME280;51386;53.082;8.816;2023-02-08T09:55:28;103906.78;;;15.54;28.49
64889;BME280;51386;53.082;8.816;2023-02-08T09:58:02;103894.78;;;15.28;30.06
64889;BME280;51386;53.082;8.816;2023-02-08T10:00:35;103904.47;;;15.18;29.74
64889;BME280;51386;53.082;8.816;2023-02-08T10:03:05;103904.88;;;15.13;29.95
64889;BME280;51386;53.082;8.816;2023-02-08T10:05:41;103896.66;;;15.48;29.42
64889;BME280;51386;53.082;8.816;2023-02-08T10:08:10;103895.00;;;15.98;29.71
64889;BME280;51386;53.082;8.816;2023-02-08T10:10:46;103893.44;;;16.16;28.95
64889;BME280;51386;53.082;8.816;2023-02-08T10:13:35;103891.53;;;15.77;28.47
64889;BME280;51386;53.082;8.816;2023-02-08T10:16:19;103894.50;;;15.63;29.19
64889;BME280;51386;53.082;8.816;2023-02-08T10:18:55;103889.91;;;15.85;29.25
64889;BME280;51386;53.082;8.816;2023-02-08T10:21:43;103889.22;;;16.13;28.85
64889;BME280;51386;53.082;8.816;2023-02-08T10:24:34;103885.59;;;16.24;28.40
64889;BME280;51386;53.082;8.816;2023-02-08T10:27:14;103878.13;;;16.48;28.45
64889;BME280;51386;53.082;8.816;2023-02-08T10:30:03;103882.00;;;16.65;28.05
64889;BME280;51386;53.082;8.816;2023-02-08T10:32:49;103877.84;;;16.91;27.96
64889;BME280;51386;53.082;8.816;2023-02-08T10:35:25;103874.22;;;17.11;27.38
64889;BME280;51386;53.082;8.816;2023-02-08T10:37:55;103870.81;;;17.19;27.34
64889;BME280;51386;53.082;8.816;2023-02-08T10:40:36;103872.09;;;17.05;27.27
64889;BME280;51386;53.082;8.816;2023-02-08T10:43:19;103874.91;;;16.94;27.41
64889;BME280;51386;53.082;8.816;2023-02-08T10:45:56;103873.19;;;16.83;27.41
64889;BME280;51386;53.082;8.816;2023-02-08T10:48:44;103876.41;;;16.68;26.37
64889;BME280;51386;53.082;8.816;2023-02-08T10:51:15;103876.53;;;16.66;27.40
64889;BME280;51386;53.082;8.816;2023-02-08T10:53:45;103868.16;;;16.71;27.09
64889;BME280;51386;53.082;8.816;2023-02-08T10:56:33;103866.88;;;16.65;27.42
64889;BME280;51386;53.082;8.816;2023-02-08T10:59:11;103863.25;;;16.76;27.18
64889;BME280;51386;53.082;8.816;2023-02-08T11:01:40;103860.22;;;17.00;27.53
64889;BME280;51386;53.082;8.816;2023-02-08T11:04:10;103856.13;;;17.24;27.38
64889;BME280;51386;53.082;8.816;2023-02-08T11:06:40;103864.78;;;17.55;26.55
64889;BME280;51386;53.082;8.816;2023-02-08T11:09:21;103865.63;;;18.02;26.32
64889;BME280;51386;53.082;8.816;2023-02-08T11:11:51;103864.59;;;18.49;25.85
64889;BME280;51386;53.082;8.816;2023-02-08T11:14:24;103862.41;;;18.62;25.60
64889;BME280;51386;53.082;8.816;2023-02-08T11:17:04;103856.00;;;18.55;25.31
64889;BME280;51386;53.082;8.816;2023-02-08T11:19:49;103855.09;;;18.64;24.72
64889;BME280;51386;53.082;8.816;2023-02-08T11:22:19;103849.97;;;18.71;24.90
64889;BME280;51386;53.082;8.816;2023-02-08T11:24:57;103854.66;;;18.86;24.62
64889;BME280;51386;53.082;8.816;2023-02-08T11:27:33;103850.75;;;18.99;24.48
64889;BME280;51386;53.082;8.816;2023-02-08T11:30:21;103853.88;;;19.12;23.85
64889;BME280;51386;53.082;8.816;2023-02-08T11:33:17;103852.25;;;19.19;24.26
64889;BME280;51386;53.082;8.816;2023-02-08T11:36:07;103848.88;;;19.34;24.34
64889;BME280;51386;53.082;8.816;2023-02-08T11:38:41;103853.16;;;19.45;23.89
64889;BME280;51386;53.082;8.816;2023-02-08T11:41:21;103852.44;;;19.61;23.67
64889;BME280;51386;53.082;8.816;2023-02-08T11:44:01;103842.69;;;19.51;23.21
64889;BME280;51386;53.082;8.816;2023-02-08T11:46:33;103841.59;;;19.62;23.65
64889;BME280;51386;53.082;8.816;2023-02-08T11:49:02;103841.47;;;19.72;23.86
64889;BME280;51386;53.082;8.816;2023-02-08T11:51:33;103839.66;;;19.80;23.33
64889;BME280;51386;53.082;8.816;2023-02-08T11:54:04;103836.75;;;19.91;23.31
64889;BME280;51386;53.082;8.816;2023-02-08T11:56:36;103834.66;;;19.77;23.41
64889;BME280;51386;53.082;8.816;2023-02-08T11:59:18;103832.94;;;20.02;23.50
64889;BME280;51386;53.082;8.816;2023-02-08T12:01:45;103834.25;;;20.32;22.56
64889;BME280;51386;53.082;8.816;2023-02-08T12:04:15;103824.56;;;20.47;22.11
64889;BME280;51386;53.082;8.816;2023-02-08T12:07:14;103821.88;;;20.31;22.65
64889;BME280;51386;53.082;8.816;2023-02-08T12:10:09;103816.78;;;20.19;22.85
64889;BME280;51386;53.082;8.816;2023-02-08T12:13:09;103810.38;;;19.96;22.64
64889;BME280;51386;53.082;8.816;2023-02-08T12:15:54;103805.84;;;19.63;23.15
64889;BME280;51386;53.082;8.816;2023-02-08T12:19:01;103795.78;;;19.57;23.18
64889;BME280;51386;53.082;8.816;2023-02-08T12:21:39;103791.09;;;19.51;23.41
64889;BME280;51386;53.082;8.816;2023-02-08T12:24:21;103793.88;;;19.41;23.43
64889;BME280;51386;53.082;8.816;2023-02-08T12:27:10;103780.28;;;19.35;23.39
64889;BME280;51386;53.082;8.816;2023-02-08T12:29:50;103772.50;;;19.24;23.60
64889;BME280;51386;53.082;8.816;2023-02-08T12:32:59;103774.56;;;18.86;23.62
64889;BME280;51386;53.082;8.816;2023-02-08T12:35:47;103771.38;;;18.48;24.23
64889;BME280;51386;53.082;8.816;2023-02-08T12:38:55;103760.06;;;18.36;24.45
64889;BME280;51386;53.082;8.816;2023-02-08T12:42:25;103752.75;;;18.91;24.26
64889;BME280;51386;53.082;8.816;2023-02-08T12:45:20;103747.50;;;19.33;23.66
64889;BME280;51386;53.082;8.816;2023-02-08T12:48:13;103737.06;;;19.73;23.32
64889;BME280;51386;53.082;8.816;2023-02-08T12:50:52;103733.88;;;20.19;22.98
64889;BME280;51386;53.082;8.816;2023-02-08T12:53:30;103724.59;;;20.56;23.19
64889;BME280;51386;53.082;8.816;2023-02-08T12:56:05;103726.41;;;20.55;22.97
64889;BME280;51386;53.082;8.816;2023-02-08T12:58:41;103713.28;;;20.04;23.25
64889;BME280;51386;53.082;8.816;2023-02-08T13:01:17;103708.06;;;19.44;23.52
64889;BME280;51386;53.082;8.816;2023-02-08T13:03:52;103710.38;;;18.70;23.68
64889;BME280;51386;53.082;8.816;2023-02-08T13:06:29;103715.69;;;18.35;24.32
64889;BME280;51386;53.082;8.816;2023-02-08T13:09:02;103704.19;;;18.70;24.41
64889;BME280;51386;53.082;8.816;2023-02-08T13:11:39;103701.28;;;19.32;23.69
64889;BME280;51386;53.082;8.816;2023-02-08T13:14:13;103689.81;;;19.82;22.82
64889;BME280;51386;53.082;8.816;2023-02-08T13:16:53;103689.03;;;20.13;22.15
64889;BME280;51386;53.082;8.816;2023-02-08T13:19:27;103683.69;;;20.21;22.74
64889;BME280;51386;53.082;8.816;2023-02-08T13:21:58;103674.31;;;20.09;22.19
64889;BME280;51386;53.082;8.816;2023-02-08T13:24:32;103666.28;;;19.43;22.74
64889;BME280;51386;53.082;8.816;2023-02-08T13:27:00;103664.34;;;18.68;23.76
64889;BME280;51386;53.082;8.816;2023-02-08T13:29:29;103663.47;;;17.80;24.32
64889;BME280;51386;53.082;8.816;2023-02-08T13:32:02;103667.34;;;16.94;25.41
64889;BME280;51386;53.082;8.816;2023-02-08T13:34:35;103661.50;;;16.23;26.14